sensor_id;sensor_type;location;lat;lon;timestamp;P1;durP1;ratioP1;P2;durP2;ratioP2
34302;SDS011;20785;50.020;19.916;2022-09-29T00:04:22;1.27;;;1.00;;
34302;SDS011;20785;50.020;19.916;2022-09-29T00:10:23;2.92;;;1.27;;
34302;SDS011;20785;50.020;19.916;2022-09-29T00:16:24;3.37;;;1.50;;
34302;SDS011;20785;50.020;19.916;2022-09-29T00:22:26;2.22;;;1.60;;
34302;SDS011;20785;50.020;19.916;2022-09-29T00:28:27;2.12;;;1.55;;
34302;SDS011;20785;50.020;19.916;2022-09-29T00:34:30;3.45;;;2.30;;
34302;SDS011;20785;50.020;19.916;2022-09-29T00:40:31;5.78;;;2.90;;
34302;SDS011;20785;50.020;19.916;2022-09-29T00:46:50;4.08;;;2.67;;
34302;SDS011;20785;50.020;19.916;2022-09-29T00:52:59;4.58;;;3.10;;
34302;SDS011;20785;50.020;19.916;2022-09-29T00:59:03;7.00;;;3.80;;
34302;SDS011;20785;50.020;19.916;2022-09-29T01:05:10;5.70;;;3.62;;
34302;SDS011;20785;50.020;19.916;2022-09-29T01:11:16;7.53;;;3.50;;
34302;SDS011;20785;50.020;19.916;2022-09-29T01:17:20;5.22;;;3.35;;
34302;SDS011;20785;50.020;19.916;2022-09-29T01:23:34;6.55;;;3.58;;
34302;SDS011;20785;50.020;19.916;2022-09-29T01:30:02;8.05;;;3.80;;
34302;SDS011;20785;50.020;19.916;2022-09-29T01:36:20;7.25;;;4.05;;
34302;SDS011;20785;50.020;19.916;2022-09-29T01:49:20;8.10;;;4.50;;
34302;SDS011;20785;50.020;19.916;2022-09-29T01:55:26;9.45;;;4.95;;
34302;SDS011;20785;50.020;19.916;2022-09-29T02:01:33;9.93;;;4.60;;
34302;SDS011;20785;50.020;19.916;2022-09-29T02:07:37;9.13;;;5.20;;
34302;SDS011;20785;50.020;19.916;2022-09-29T02:20:00;9.83;;;4.65;;
34302;SDS011;20785;50.020;19.916;2022-09-29T02:26:02;7.40;;;4.47;;
34302;SDS011;20785;50.020;19.916;2022-09-29T02:32:04;8.60;;;4.70;;
34302;SDS011;20785;50.020;19.916;2022-09-29T02:38:11;7.30;;;4.25;;
34302;SDS011;20785;50.020;19.916;2022-09-29T02:57:16;7.85;;;5.50;;
34302;SDS011;20785;50.020;19.916;2022-09-29T03:03:21;8.73;;;5.05;;
34302;SDS011;20785;50.020;19.916;2022-09-29T03:09:22;8.45;;;4.97;;
34302;SDS011;20785;50.020;19.916;2022-09-29T03:15:24;10.28;;;5.03;;
34302;SDS011;20785;50.020;19.916;2022-09-29T03:21:25;8.23;;;4.40;;
34302;SDS011;20785;50.020;19.916;2022-09-29T03:27:27;7.40;;;4.47;;
34302;SDS011;20785;50.020;19.916;2022-09-29T03:33:29;8.58;;;4.22;;
34302;SDS011;20785;50.020;19.916;2022-09-29T03:39:30;6.80;;;4.65;;
34302;SDS011;20785;50.020;19.916;2022-09-29T03:45:32;7.95;;;4.35;;
34302;SDS011;20785;50.020;19.916;2022-09-29T03:51:33;7.03;;;4.65;;
34302;SDS011;20785;50.020;19.916;2022-09-29T03:57:34;7.95;;;4.37;;
34302;SDS011;20785;50.020;19.916;2022-09-29T04:03:36;8.63;;;4.92;;
34302;SDS011;20785;50.020;19.916;2022-09-29T04:09:37;8.25;;;4.53;;
34302;SDS011;20785;50.020;19.916;2022-09-29T04:15:38;8.80;;;5.00;;
34302;SDS011;20785;50.020;19.916;2022-09-29T04:21:40;8.50;;;4.58;;
34302;SDS011;20785;50.020;19.916;2022-09-29T04:35:10;8.93;;;5.37;;
34302;SDS011;20785;50.020;19.916;2022-09-29T04:41:11;8.23;;;5.15;;
34302;SDS011;20785;50.020;19.916;2022-09-29T04:47:12;8.05;;;4.72;;
34302;SDS011;20785;50.020;19.916;2022-09-29T04:53:14;8.33;;;4.60;;
34302;SDS011;20785;50.020;19.916;2022-09-29T04:59:16;8.98;;;4.90;;
34302;SDS011;20785;50.020;19.916;2022-09-29T05:05:22;8.10;;;4.72;;
34302;SDS011;20785;50.020;19.916;2022-09-29T05:11:21;7.58;;;4.17;;
34302;SDS011;20785;50.020;19.916;2022-09-29T05:17:22;6.92;;;4.33;;
34302;SDS011;20785;50.020;19.916;2022-09-29T05:23:23;7.20;;;4.55;;
34302;SDS011;20785;50.020;19.916;2022-09-29T05:29:25;7.87;;;4.58;;
34302;SDS011;20785;50.020;19.916;2022-09-29T05:35:26;6.72;;;4.47;;
34302;SDS011;20785;50.020;19.916;2022-09-29T05:41:27;8.30;;;4.47;;
34302;SDS011;20785;50.020;19.916;2022-09-29T05:47:29;8.30;;;4.67;;
34302;SDS011;20785;50.020;19.916;2022-09-29T05:53:32;7.58;;;4.53;;
34302;SDS011;20785;50.020;19.916;2022-09-29T05:59:33;7.17;;;4.67;;
34302;SDS011;20785;50.020;19.916;2022-09-29T06:05:38;7.60;;;4.45;;
34302;SDS011;20785;50.020;19.916;2022-09-29T06:11:40;7.90;;;4.47;;
34302;SDS011;20785;50.020;19.916;2022-09-29T06:17:41;7.83;;;4.08;;
34302;SDS011;20785;50.020;19.916;2022-09-29T06:23:43;8.98;;;4.80;;
34302;SDS011;20785;50.020;19.916;2022-09-29T06:29:44;10.98;;;5.03;;
34302;SDS011;20785;50.020;19.916;2022-09-29T06:35:46;7.53;;;4.70;;
34302;SDS011;20785;50.020;19.916;2022-09-29T06:42:07;7.62;;;4.80;;
34302;SDS011;20785;50.020;19.916;2022-09-29T06:48:09;9.18;;;4.95;;
34302;SDS011;20785;50.020;19.916;2022-09-29T06:54:11;8.58;;;4.83;;
34302;SDS011;20785;50.020;19.916;2022-09-29T07:00:22;7.30;;;4.67;;
34302;SDS011;20785;50.020;19.916;2022-09-29T07:06:23;6.45;;;4.35;;
34302;SDS011;20785;50.020;19.916;2022-09-29T07:12:25;7.08;;;4.10;;
34302;SDS011;20785;50.020;19.916;2022-09-29T07:18:26;6.05;;;4.08;;
34302;SDS011;20785;50.020;19.916;2022-09-29T07:24:29;6.17;;;4.05;;
34302;SDS011;20785;50.020;19.916;2022-09-29T07:30:34;6.15;;;4.20;;
34302;SDS011;20785;50.020;19.916;2022-09-29T07:36:36;5.33;;;3.58;;
34302;SDS011;20785;50.020;19.916;2022-09-29T07:42:38;6.30;;;4.10;;
34302;SDS011;20785;50.020;19.916;2022-09-29T07:48:42;6.08;;;3.80;;
34302;SDS011;20785;50.020;19.916;2022-09-29T07:54:43;4.97;;;3.67;;
34302;SDS011;20785;50.020;19.916;2022-09-29T08:00:45;5.70;;;3.75;;
34302;SDS011;20785;50.020;19.916;2022-09-29T08:06:48;5.35;;;3.40;;
34302;SDS011;20785;50.020;19.916;2022-09-29T08:12:50;4.55;;;3.10;;
34302;SDS011;20785;50.020;19.916;2022-09-29T08:18:51;4.97;;;3.25;;
34302;SDS011;20785;50.020;19.916;2022-09-29T08:24:53;5.90;;;3.20;;
34302;SDS011;20785;50.020;19.916;2022-09-29T08:30:54;5.05;;;2.67;;
34302;SDS011;20785;50.020;19.916;2022-09-29T08:36:55;4.58;;;2.50;;
34302;SDS011;20785;50.020;19.916;2022-09-29T08:49:23;4.97;;;2.12;;
34302;SDS011;20785;50.020;19.916;2022-09-29T08:55:40;3.80;;;2.25;;
34302;SDS011;20785;50.020;19.916;2022-09-29T09:21:58;3.40;;;1.62;;
34302;SDS011;20785;50.020;19.916;2022-09-29T09:28:29;3.08;;;1.60;;
34302;SDS011;20785;50.020;19.916;2022-09-29T09:34:46;2.95;;;1.75;;
34302;SDS011;20785;50.020;19.916;2022-09-29T09:40:56;2.20;;;2.00;;
34302;SDS011;20785;50.020;19.916;2022-09-29T10:06:15;2.47;;;1.40;;
34302;SDS011;20785;50.020;19.916;2022-09-29T10:12:19;1.85;;;1.35;;
34302;SDS011;20785;50.020;19.916;2022-09-29T10:24:36;1.70;;;1.10;;
34302;SDS011;20785;50.020;19.916;2022-09-29T10:30:37;3.10;;;1.67;;
34302;SDS011;20785;50.020;19.916;2022-09-29T10:36:49;2.40;;;1.22;;
34302;SDS011;20785;50.020;19.916;2022-09-29T10:42:57;4.00;;;2.22;;
34302;SDS011;20785;50.020;19.916;2022-09-29T10:55:33;4.55;;;1.85;;
34302;SDS011;20785;50.020;19.916;2022-09-29T11:01:34;4.95;;;3.45;;
34302;SDS011;20785;50.020;19.916;2022-09-29T11:07:47;3.62;;;2.00;;
34302;SDS011;20785;50.020;19.916;2022-09-29T11:13:48;4.67;;;2.85;;
34302;SDS011;20785;50.020;19.916;2022-09-29T11:19:54;5.30;;;2.37;;
34302;SDS011;20785;50.020;19.916;2022-09-29T11:26:03;4.62;;;2.52;;
34302;SDS011;20785;50.020;19.916;2022-09-29T11:44:56;4.03;;;2.40;;
34302;SDS011;20785;50.020;19.916;2022-09-29T11:51:03;4.75;;;2.80;;
34302;SDS011;20785;50.020;19.916;2022-09-29T11:57:32;5.25;;;2.27;;
34302;SDS011;20785;50.020;19.916;2022-09-29T12:04:07;4.30;;;1.52;;
34302;SDS011;20785;50.020;19.916;2022-09-29T12:17:02;2.98;;;1.10;;
34302;SDS011;20785;50.020;19.916;2022-09-29T12:23:14;2.47;;;1.10;;
34302;SDS011;20785;50.020;19.916;2022-09-29T12:29:25;3.22;;;1.20;;
34302;SDS011;20785;50.020;19.916;2022-09-29T12:35:30;2.22;;;1.10;;
34302;SDS011;20785;50.020;19.916;2022-09-29T12:41:43;3.55;;;1.00;;
34302;SDS011;20785;50.020;19.916;2022-09-29T12:47:53;1.02;;;0.80;;
34302;SDS011;20785;50.020;19.916;2022-09-29T13:00:40;1.67;;;1.10;;
34302;SDS011;20785;50.020;19.916;2022-09-29T13:19:51;3.95;;;1.20;;
34302;SDS011;20785;50.020;19.916;2022-09-29T13:32:50;2.60;;;1.42;;
34302;SDS011;20785;50.020;19.916;2022-09-29T13:38:59;4.05;;;1.30;;
34302;SDS011;20785;50.020;19.916;2022-09-29T13:45:14;2.90;;;1.60;;
34302;SDS011;20785;50.020;19.916;2022-09-29T13:51:39;2.65;;;1.80;;
34302;SDS011;20785;50.020;19.916;2022-09-29T13:57:50;2.72;;;1.80;;
34302;SDS011;20785;50.020;19.916;2022-09-29T14:03:54;4.67;;;1.70;;
34302;SDS011;20785;50.020;19.916;2022-09-29T14:09:55;2.40;;;1.70;;
34302;SDS011;20785;50.020;19.916;2022-09-29T14:16:13;2.80;;;1.60;;
34302;SDS011;20785;50.020;19.916;2022-09-29T14:29:00;2.20;;;1.55;;
34302;SDS011;20785;50.020;19.916;2022-09-29T14:35:05;2.65;;;1.45;;
34302;SDS011;20785;50.020;19.916;2022-09-29T14:47:30;2.95;;;1.70;;
34302;SDS011;20785;50.020;19.916;2022-09-29T14:54:06;2.22;;;1.60;;
34302;SDS011;20785;50.020;19.916;2022-09-29T15:00:17;1.72;;;1.22;;
34302;SDS011;20785;50.020;19.916;2022-09-29T15:06:25;3.75;;;1.40;;
34302;SDS011;20785;50.020;19.916;2022-09-29T15:12:29;2.40;;;1.30;;
34302;SDS011;20785;50.020;19.916;2022-09-29T15:25:19;4.25;;;1.70;;
34302;SDS011;20785;50.020;19.916;2022-09-29T15:31:32;2.65;;;1.42;;
34302;SDS011;20785;50.020;19.916;2022-09-29T15:44:00;4.87;;;1.72;;
34302;SDS011;20785;50.020;19.916;2022-09-29T15:50:22;6.90;;;1.87;;
34302;SDS011;20785;50.020;19.916;2022-09-29T15:56:25;3.87;;;2.20;;
34302;SDS011;20785;50.020;19.916;2022-09-29T16:02:30;5.42;;;2.20;;
34302;SDS011;20785;50.020;19.916;2022-09-29T16:08:42;3.45;;;2.00;;
34302;SDS011;20785;50.020;19.916;2022-09-29T16:14:52;4.83;;;2.22;;
34302;SDS011;20785;50.020;19.916;2022-09-29T16:20:58;5.10;;;2.30;;
34302;SDS011;20785;50.020;19.916;2022-09-29T16:27:02;3.30;;;2.02;;
34302;SDS011;20785;50.020;19.916;2022-09-29T16:33:11;3.90;;;2.02;;
34302;SDS011;20785;50.020;19.916;2022-09-29T16:39:18;3.65;;;2.15;;
34302;SDS011;20785;50.020;19.916;2022-09-29T16:45:23;3.83;;;2.12;;
34302;SDS011;20785;50.020;19.916;2022-09-29T16:51:24;4.40;;;2.60;;
34302;SDS011;20785;50.020;19.916;2022-09-29T16:57:31;5.80;;;3.58;;
34302;SDS011;20785;50.020;19.916;2022-09-29T17:03:33;6.20;;;3.55;;
34302;SDS011;20785;50.020;19.916;2022-09-29T17:09:43;6.22;;;3.52;;
34302;SDS011;20785;50.020;19.916;2022-09-29T17:15:48;5.42;;;3.60;;
34302;SDS011;20785;50.020;19.916;2022-09-29T17:21:52;4.37;;;2.90;;
34302;SDS011;20785;50.020;19.916;2022-09-29T17:27:57;7.15;;;3.45;;
34302;SDS011;20785;50.020;19.916;2022-09-29T17:34:15;4.95;;;3.25;;
34302;SDS011;20785;50.020;19.916;2022-09-29T17:40:23;7.62;;;3.77;;
34302;SDS011;20785;50.020;19.916;2022-09-29T17:46:53;7.15;;;3.47;;
34302;SDS011;20785;50.020;19.916;2022-09-29T17:52:54;6.92;;;3.80;;
34302;SDS011;20785;50.020;19.916;2022-09-29T17:58:58;8.50;;;4.40;;
34302;SDS011;20785;50.020;19.916;2022-09-29T18:05:01;8.03;;;5.08;;
34302;SDS011;20785;50.020;19.916;2022-09-29T18:11:03;7.45;;;4.15;;
34302;SDS011;20785;50.020;19.916;2022-09-29T18:17:05;8.30;;;4.65;;
34302;SDS011;20785;50.020;19.916;2022-09-29T18:23:08;9.08;;;5.45;;
34302;SDS011;20785;50.020;19.916;2022-09-29T18:29:16;8.35;;;5.62;;
34302;SDS011;20785;50.020;19.916;2022-09-29T18:35:19;10.40;;;6.17;;
34302;SDS011;20785;50.020;19.916;2022-09-29T18:41:24;9.08;;;5.50;;
34302;SDS011;20785;50.020;19.916;2022-09-29T18:47:27;8.75;;;5.37;;
34302;SDS011;20785;50.020;19.916;2022-09-29T18:53:34;9.33;;;5.60;;
34302;SDS011;20785;50.020;19.916;2022-09-29T18:59:36;10.03;;;5.72;;
34302;SDS011;20785;50.020;19.916;2022-09-29T19:05:39;8.70;;;5.72;;
34302;SDS011;20785;50.020;19.916;2022-09-29T19:11:43;8.95;;;5.80;;
34302;SDS011;20785;50.020;19.916;2022-09-29T19:17:47;9.50;;;5.87;;
34302;SDS011;20785;50.020;19.916;2022-09-29T19:23:49;9.35;;;5.72;;
34302;SDS011;20785;50.020;19.916;2022-09-29T19:29:57;12.10;;;6.28;;
34302;SDS011;20785;50.020;19.916;2022-09-29T19:36:00;11.78;;;6.80;;
34302;SDS011;20785;50.020;19.916;2022-09-29T19:42:06;9.30;;;6.10;;
34302;SDS011;20785;50.020;19.916;2022-09-29T19:48:10;9.88;;;5.45;;
34302;SDS011;20785;50.020;19.916;2022-09-29T19:54:15;7.40;;;4.87;;
34302;SDS011;20785;50.020;19.916;2022-09-29T20:00:21;10.25;;;6.53;;
34302;SDS011;20785;50.020;19.916;2022-09-29T20:06:27;8.58;;;5.72;;
34302;SDS011;20785;50.020;19.916;2022-09-29T20:12:30;13.22;;;6.37;;
34302;SDS011;20785;50.020;19.916;2022-09-29T20:18:32;12.35;;;7.55;;
34302;SDS011;20785;50.020;19.916;2022-09-29T20:45:40;11.12;;;7.20;;
34302;SDS011;20785;50.020;19.916;2022-09-29T20:58:56;12.87;;;7.70;;
34302;SDS011;20785;50.020;19.916;2022-09-29T21:05:06;14.40;;;9.83;;
34302;SDS011;20785;50.020;19.916;2022-09-29T21:18:20;21.37;;;12.80;;
34302;SDS011;20785;50.020;19.916;2022-09-29T21:24:21;20.60;;;13.25;;
34302;SDS011;20785;50.020;19.916;2022-09-29T21:37:32;22.95;;;15.58;;
34302;SDS011;20785;50.020;19.916;2022-09-29T21:43:34;23.98;;;16.37;;
34302;SDS011;20785;50.020;19.916;2022-09-29T21:49:39;24.30;;;15.40;;
34302;SDS011;20785;50.020;19.916;2022-09-29T21:55:42;21.33;;;14.93;;
34302;SDS011;20785;50.020;19.916;2022-09-29T22:01:44;26.48;;;16.12;;
34302;SDS011;20785;50.020;19.916;2022-09-29T22:07:47;24.15;;;16.97;;
34302;SDS011;20785;50.020;19.916;2022-09-29T22:13:49;26.55;;;16.70;;
34302;SDS011;20785;50.020;19.916;2022-09-29T22:19:51;26.23;;;16.12;;
34302;SDS011;20785;50.020;19.916;2022-09-29T22:25:53;24.32;;;15.32;;
34302;SDS011;20785;50.020;19.916;2022-09-29T22:31:55;20.08;;;13.00;;
34302;SDS011;20785;50.020;19.916;2022-09-29T22:37:56;19.17;;;13.28;;
34302;SDS011;20785;50.020;19.916;2022-09-29T22:43:58;21.80;;;13.38;;
34302;SDS011;20785;50.020;19.916;2022-09-29T22:50:03;18.82;;;12.82;;
34302;SDS011;20785;50.020;19.916;2022-09-29T22:56:09;20.95;;;12.40;;
34302;SDS011;20785;50.020;19.916;2022-09-29T23:02:16;20.17;;;12.58;;
34302;SDS011;20785;50.020;19.916;2022-09-29T23:08:17;25.27;;;16.97;;
34302;SDS011;20785;50.020;19.916;2022-09-29T23:14:21;32.40;;;20.27;;
34302;SDS011;20785;50.020;19.916;2022-09-29T23:20:22;34.63;;;23.83;;
34302;SDS011;20785;50.020;19.916;2022-09-29T23:26:28;36.03;;;24.35;;
34302;SDS011;20785;50.020;19.916;2022-09-29T23:32:34;33.35;;;21.42;;
34302;SDS011;20785;50.020;19.916;2022-09-29T23:38:36;24.27;;;17.10;;
34302;SDS011;20785;50.020;19.916;2022-09-29T23:45:00;22.30;;;15.18;;
34302;SDS011;20785;50.020;19.916;2022-09-29T23:51:04;21.48;;;15.03;;
34302;SDS011;20785;50.020;19.916;2022-09-29T23:57:14;22.02;;;15.15;;
